Terminal Aerodrome Forecast
Issued by NWS

Home | Current Version | Previous Version | Text Only | Print | Product List | Glossary Off
Versions: 1 2 3 4 5 6 7 8 9 10 11 12 13 14 15 16 17

866
FTUS43 KTOP 211734
TAFMHK
TAF
KMHK 211734Z 2118/2218 21018G28KT P6SM FEW250
     FM220100 18010KT P6SM SCT250
     FM220400 20010KT P6SM BKN250 WS011/20040KT
     FM220800 19008KT P6SM VCTS SCT250CB WS011/20040KT
     FM221100 19007KT P6SM SCT200
     FM221600 19012G20KT P6SM FEW250=

USA.gov is the U.S. government's official web portal to all federal, state and local government web resources and services.